sensor_id;sensor_type;location;lat;lon;timestamp;P1;durP1;ratioP1;P2;durP2;ratioP2
56083;SDS011;41958;52.416;13.428;2023-03-04T00:00:04;33.17;;;13.27;;
56083;SDS011;41958;52.416;13.428;2023-03-04T00:02:30;34.03;;;13.35;;
56083;SDS011;41958;52.416;13.428;2023-03-04T00:04:55;33.33;;;14.45;;
56083;SDS011;41958;52.416;13.428;2023-03-04T00:07:20;36.15;;;14.38;;
56083;SDS011;41958;52.416;13.428;2023-03-04T00:09:46;39.05;;;15.60;;
56083;SDS011;41958;52.416;13.428;2023-03-04T00:12:11;32.63;;;13.13;;
56083;SDS011;41958;52.416;13.428;2023-03-04T00:14:37;39.28;;;13.57;;
56083;SDS011;41958;52.416;13.428;2023-03-04T00:17:02;38.20;;;14.93;;
56083;SDS011;41958;52.416;13.428;2023-03-04T00:19:28;39.45;;;16.30;;
56083;SDS011;41958;52.416;13.428;2023-03-04T00:21:54;38.25;;;15.40;;
56083;SDS011;41958;52.416;13.428;2023-03-04T00:24:19;35.88;;;13.75;;
56083;SDS011;41958;52.416;13.428;2023-03-04T00:26:45;38.53;;;15.48;;
56083;SDS011;41958;52.416;13.428;2023-03-04T00:29:10;37.67;;;15.52;;
56083;SDS011;41958;52.416;13.428;2023-03-04T00:31:35;40.95;;;15.30;;
56083;SDS011;41958;52.416;13.428;2023-03-04T00:34:01;35.92;;;14.15;;
56083;SDS011;41958;52.416;13.428;2023-03-04T00:36:26;38.05;;;14.25;;
56083;SDS011;41958;52.416;13.428;2023-03-04T00:38:51;30.45;;;13.40;;
56083;SDS011;41958;52.416;13.428;2023-03-04T00:41:16;39.70;;;14.20;;
56083;SDS011;41958;52.416;13.428;2023-03-04T00:43:42;35.85;;;13.65;;
56083;SDS011;41958;52.416;13.428;2023-03-04T00:46:07;39.47;;;14.13;;
56083;SDS011;41958;52.416;13.428;2023-03-04T00:48:32;32.80;;;14.25;;
56083;SDS011;41958;52.416;13.428;2023-03-04T00:50:57;39.35;;;14.18;;
56083;SDS011;41958;52.416;13.428;2023-03-04T00:53:23;37.00;;;14.30;;
56083;SDS011;41958;52.416;13.428;2023-03-04T00:55:48;37.35;;;15.18;;
56083;SDS011;41958;52.416;13.428;2023-03-04T00:58:14;40.70;;;13.82;;
56083;SDS011;41958;52.416;13.428;2023-03-04T01:00:39;36.47;;;14.50;;
56083;SDS011;41958;52.416;13.428;2023-03-04T01:03:04;37.28;;;14.40;;
56083;SDS011;41958;52.416;13.428;2023-03-04T01:05:29;34.17;;;12.98;;
56083;SDS011;41958;52.416;13.428;2023-03-04T01:07:56;32.42;;;12.10;;
56083;SDS011;41958;52.416;13.428;2023-03-04T01:10:21;36.45;;;13.00;;
56083;SDS011;41958;52.416;13.428;2023-03-04T01:12:46;34.38;;;11.82;;
56083;SDS011;41958;52.416;13.428;2023-03-04T01:15:13;32.67;;;12.18;;
56083;SDS011;41958;52.416;13.428;2023-03-04T01:17:39;31.65;;;12.05;;
56083;SDS011;41958;52.416;13.428;2023-03-04T01:20:04;27.65;;;10.55;;
56083;SDS011;41958;52.416;13.428;2023-03-04T01:22:31;29.75;;;11.45;;
56083;SDS011;41958;52.416;13.428;2023-03-04T01:24:56;32.55;;;9.98;;
56083;SDS011;41958;52.416;13.428;2023-03-04T01:27:22;31.38;;;10.38;;
56083;SDS011;41958;52.416;13.428;2023-03-04T01:29:47;28.10;;;10.80;;
56083;SDS011;41958;52.416;13.428;2023-03-04T01:32:12;29.60;;;10.50;;
56083;SDS011;41958;52.416;13.428;2023-03-04T01:34:38;36.22;;;12.32;;
56083;SDS011;41958;52.416;13.428;2023-03-04T01:37:03;26.02;;;9.50;;
56083;SDS011;41958;52.416;13.428;2023-03-04T01:39:28;27.50;;;12.02;;
56083;SDS011;41958;52.416;13.428;2023-03-04T01:41:54;28.52;;;9.75;;
56083;SDS011;41958;52.416;13.428;2023-03-04T01:44:19;29.10;;;10.00;;
56083;SDS011;41958;52.416;13.428;2023-03-04T01:46:51;27.83;;;9.45;;
56083;SDS011;41958;52.416;13.428;2023-03-04T01:49:18;25.77;;;8.82;;
56083;SDS011;41958;52.416;13.428;2023-03-04T01:51:51;26.33;;;9.75;;
56083;SDS011;41958;52.416;13.428;2023-03-04T01:54:18;22.35;;;8.98;;
56083;SDS011;41958;52.416;13.428;2023-03-04T01:56:46;24.13;;;8.60;;
56083;SDS011;41958;52.416;13.428;2023-03-04T01:59:18;32.40;;;9.68;;
56083;SDS011;41958;52.416;13.428;2023-03-04T02:01:46;23.38;;;8.57;;
56083;SDS011;41958;52.416;13.428;2023-03-04T02:04:14;30.10;;;8.93;;
56083;SDS011;41958;52.416;13.428;2023-03-04T02:06:41;25.30;;;8.63;;
56083;SDS011;41958;52.416;13.428;2023-03-04T02:09:07;24.05;;;9.27;;
56083;SDS011;41958;52.416;13.428;2023-03-04T02:11:33;25.33;;;8.85;;
56083;SDS011;41958;52.416;13.428;2023-03-04T02:14:00;29.10;;;8.45;;
56083;SDS011;41958;52.416;13.428;2023-03-04T02:16:25;27.83;;;8.25;;
56083;SDS011;41958;52.416;13.428;2023-03-04T02:18:51;23.23;;;9.38;;
56083;SDS011;41958;52.416;13.428;2023-03-04T02:21:37;24.52;;;7.78;;
56083;SDS011;41958;52.416;13.428;2023-03-04T02:24:04;23.50;;;7.30;;
56083;SDS011;41958;52.416;13.428;2023-03-04T02:26:36;25.38;;;7.82;;
56083;SDS011;41958;52.416;13.428;2023-03-04T02:29:03;25.55;;;7.53;;
56083;SDS011;41958;52.416;13.428;2023-03-04T02:31:30;20.38;;;8.25;;
56083;SDS011;41958;52.416;13.428;2023-03-04T02:34:14;22.30;;;7.13;;
56083;SDS011;41958;52.416;13.428;2023-03-04T02:36:42;15.93;;;6.85;;
56083;SDS011;41958;52.416;13.428;2023-03-04T02:41:58;23.13;;;7.15;;
56083;SDS011;41958;52.416;13.428;2023-03-04T02:44:28;31.80;;;7.65;;
56083;SDS011;41958;52.416;13.428;2023-03-04T02:46:56;25.40;;;7.18;;
56083;SDS011;41958;52.416;13.428;2023-03-04T02:49:22;22.13;;;6.80;;
56083;SDS011;41958;52.416;13.428;2023-03-04T02:51:56;25.33;;;9.23;;
56083;SDS011;41958;52.416;13.428;2023-03-04T02:54:24;24.08;;;7.35;;
56083;SDS011;41958;52.416;13.428;2023-03-04T02:56:51;20.52;;;7.38;;
56083;SDS011;41958;52.416;13.428;2023-03-04T02:59:17;20.50;;;6.60;;
56083;SDS011;41958;52.416;13.428;2023-03-04T03:01:44;20.63;;;6.32;;
56083;SDS011;41958;52.416;13.428;2023-03-04T03:04:10;17.15;;;6.15;;
56083;SDS011;41958;52.416;13.428;2023-03-04T03:06:36;25.13;;;7.80;;
56083;SDS011;41958;52.416;13.428;2023-03-04T03:09:02;16.00;;;6.38;;
56083;SDS011;41958;52.416;13.428;2023-03-04T03:11:27;21.80;;;6.70;;
56083;SDS011;41958;52.416;13.428;2023-03-04T03:13:53;19.38;;;7.18;;
56083;SDS011;41958;52.416;13.428;2023-03-04T03:16:18;25.35;;;6.22;;
56083;SDS011;41958;52.416;13.428;2023-03-04T03:18:44;18.17;;;5.88;;
56083;SDS011;41958;52.416;13.428;2023-03-04T03:21:09;20.38;;;5.88;;
56083;SDS011;41958;52.416;13.428;2023-03-04T03:23:34;17.30;;;5.28;;
56083;SDS011;41958;52.416;13.428;2023-03-04T03:26:00;20.50;;;6.18;;
56083;SDS011;41958;52.416;13.428;2023-03-04T03:28:25;19.40;;;5.47;;
56083;SDS011;41958;52.416;13.428;2023-03-04T03:30:50;16.98;;;5.65;;
56083;SDS011;41958;52.416;13.428;2023-03-04T03:33:16;17.60;;;5.57;;
56083;SDS011;41958;52.416;13.428;2023-03-04T03:35:41;20.17;;;5.47;;
56083;SDS011;41958;52.416;13.428;2023-03-04T03:38:06;14.18;;;5.05;;
56083;SDS011;41958;52.416;13.428;2023-03-04T03:40:31;19.92;;;5.25;;
56083;SDS011;41958;52.416;13.428;2023-03-04T03:42:57;25.25;;;6.00;;
56083;SDS011;41958;52.416;13.428;2023-03-04T03:45:22;17.58;;;5.95;;
56083;SDS011;41958;52.416;13.428;2023-03-04T03:47:47;20.63;;;5.72;;
56083;SDS011;41958;52.416;13.428;2023-03-04T03:50:12;18.05;;;6.10;;
56083;SDS011;41958;52.416;13.428;2023-03-04T03:52:38;13.32;;;4.90;;
56083;SDS011;41958;52.416;13.428;2023-03-04T03:55:03;21.00;;;5.72;;
56083;SDS011;41958;52.416;13.428;2023-03-04T03:57:29;19.33;;;5.43;;
56083;SDS011;41958;52.416;13.428;2023-03-04T03:59:54;19.55;;;5.30;;
56083;SDS011;41958;52.416;13.428;2023-03-04T04:02:20;18.60;;;5.10;;
56083;SDS011;41958;52.416;13.428;2023-03-04T04:04:48;16.63;;;4.75;;
56083;SDS011;41958;52.416;13.428;2023-03-04T04:07:13;20.95;;;4.93;;
56083;SDS011;41958;52.416;13.428;2023-03-04T04:09:39;19.27;;;5.20;;
56083;SDS011;41958;52.416;13.428;2023-03-04T04:12:07;20.02;;;4.45;;
56083;SDS011;41958;52.416;13.428;2023-03-04T04:14:32;20.42;;;4.88;;
56083;SDS011;41958;52.416;13.428;2023-03-04T04:17:01;17.15;;;5.10;;
56083;SDS011;41958;52.416;13.428;2023-03-04T04:19:26;17.15;;;4.63;;
56083;SDS011;41958;52.416;13.428;2023-03-04T04:21:54;19.88;;;4.55;;
56083;SDS011;41958;52.416;13.428;2023-03-04T04:24:20;15.35;;;4.47;;
56083;SDS011;41958;52.416;13.428;2023-03-04T04:26:45;18.45;;;5.43;;
56083;SDS011;41958;52.416;13.428;2023-03-04T04:29:12;25.98;;;6.05;;
56083;SDS011;41958;52.416;13.428;2023-03-04T04:31:39;19.73;;;4.18;;
56083;SDS011;41958;52.416;13.428;2023-03-04T04:34:07;16.83;;;4.18;;
56083;SDS011;41958;52.416;13.428;2023-03-04T04:36:33;14.55;;;4.75;;
56083;SDS011;41958;52.416;13.428;2023-03-04T04:38:59;18.30;;;4.20;;
56083;SDS011;41958;52.416;13.428;2023-03-04T04:41:25;18.20;;;4.13;;
56083;SDS011;41958;52.416;13.428;2023-03-04T04:43:56;17.05;;;4.55;;
56083;SDS011;41958;52.416;13.428;2023-03-04T04:46:24;14.35;;;4.40;;
56083;SDS011;41958;52.416;13.428;2023-03-04T04:48:54;14.98;;;3.47;;
56083;SDS011;41958;52.416;13.428;2023-03-04T04:51:19;10.20;;;3.03;;
56083;SDS011;41958;52.416;13.428;2023-03-04T04:53:45;13.20;;;4.03;;
56083;SDS011;41958;52.416;13.428;2023-03-04T04:56:11;16.38;;;3.35;;
56083;SDS011;41958;52.416;13.428;2023-03-04T04:58:39;16.00;;;3.70;;
56083;SDS011;41958;52.416;13.428;2023-03-04T05:01:04;15.40;;;4.05;;
56083;SDS011;41958;52.416;13.428;2023-03-04T05:03:30;13.65;;;3.92;;
56083;SDS011;41958;52.416;13.428;2023-03-04T05:05:56;15.73;;;3.00;;
56083;SDS011;41958;52.416;13.428;2023-03-04T05:08:22;13.90;;;3.20;;
56083;SDS011;41958;52.416;13.428;2023-03-04T05:10:47;12.15;;;3.67;;
56083;SDS011;41958;52.416;13.428;2023-03-04T05:13:15;13.68;;;3.65;;
56083;SDS011;41958;52.416;13.428;2023-03-04T05:15:40;14.00;;;3.28;;
56083;SDS011;41958;52.416;13.428;2023-03-04T05:18:06;14.98;;;3.28;;
56083;SDS011;41958;52.416;13.428;2023-03-04T05:20:31;14.98;;;3.45;;
56083;SDS011;41958;52.416;13.428;2023-03-04T05:22:56;11.77;;;2.95;;
56083;SDS011;41958;52.416;13.428;2023-03-04T05:25:21;13.07;;;2.90;;
56083;SDS011;41958;52.416;13.428;2023-03-04T05:27:47;9.00;;;2.90;;
56083;SDS011;41958;52.416;13.428;2023-03-04T05:30:12;11.73;;;3.15;;
56083;SDS011;41958;52.416;13.428;2023-03-04T05:32:40;11.13;;;2.53;;
56083;SDS011;41958;52.416;13.428;2023-03-04T05:35:06;5.82;;;2.42;;
56083;SDS011;41958;52.416;13.428;2023-03-04T05:37:31;10.32;;;2.55;;
56083;SDS011;41958;52.416;13.428;2023-03-04T05:39:56;17.58;;;3.03;;
56083;SDS011;41958;52.416;13.428;2023-03-04T05:42:22;14.57;;;3.17;;
56083;SDS011;41958;52.416;13.428;2023-03-04T05:44:47;10.88;;;2.72;;
56083;SDS011;41958;52.416;13.428;2023-03-04T05:47:12;11.00;;;2.45;;
56083;SDS011;41958;52.416;13.428;2023-03-04T05:49:37;8.77;;;2.05;;
56083;SDS011;41958;52.416;13.428;2023-03-04T05:52:03;8.98;;;2.13;;
56083;SDS011;41958;52.416;13.428;2023-03-04T05:54:28;7.13;;;1.98;;
56083;SDS011;41958;52.416;13.428;2023-03-04T05:56:53;9.77;;;2.50;;
56083;SDS011;41958;52.416;13.428;2023-03-04T05:59:18;10.75;;;2.13;;
56083;SDS011;41958;52.416;13.428;2023-03-04T06:01:44;13.27;;;2.15;;
56083;SDS011;41958;52.416;13.428;2023-03-04T06:04:10;13.68;;;2.42;;
56083;SDS011;41958;52.416;13.428;2023-03-04T06:06:35;11.05;;;2.58;;
56083;SDS011;41958;52.416;13.428;2023-03-04T06:09:01;11.52;;;2.63;;
56083;SDS011;41958;52.416;13.428;2023-03-04T06:11:26;11.52;;;2.35;;
56083;SDS011;41958;52.416;13.428;2023-03-04T06:13:51;10.00;;;2.13;;
56083;SDS011;41958;52.416;13.428;2023-03-04T06:16:16;12.52;;;2.25;;
56083;SDS011;41958;52.416;13.428;2023-03-04T06:18:42;8.90;;;2.55;;
56083;SDS011;41958;52.416;13.428;2023-03-04T06:21:07;7.85;;;1.83;;
56083;SDS011;41958;52.416;13.428;2023-03-04T06:23:32;10.77;;;2.15;;
56083;SDS011;41958;52.416;13.428;2023-03-04T06:25:58;6.25;;;1.67;;
56083;SDS011;41958;52.416;13.428;2023-03-04T06:28:24;13.80;;;2.47;;
56083;SDS011;41958;52.416;13.428;2023-03-04T06:30:53;7.75;;;2.22;;
56083;SDS011;41958;52.416;13.428;2023-03-04T06:33:20;12.57;;;2.65;;
56083;SDS011;41958;52.416;13.428;2023-03-04T06:35:46;9.00;;;1.95;;
56083;SDS011;41958;52.416;13.428;2023-03-04T06:38:11;15.02;;;2.40;;
56083;SDS011;41958;52.416;13.428;2023-03-04T06:40:36;11.88;;;2.55;;
56083;SDS011;41958;52.416;13.428;2023-03-04T06:43:02;9.90;;;2.75;;
56083;SDS011;41958;52.416;13.428;2023-03-04T06:45:27;9.68;;;2.67;;
56083;SDS011;41958;52.416;13.428;2023-03-04T06:47:52;7.28;;;2.20;;
56083;SDS011;41958;52.416;13.428;2023-03-04T06:50:17;8.35;;;2.97;;
56083;SDS011;41958;52.416;13.428;2023-03-04T06:52:43;11.98;;;2.53;;
56083;SDS011;41958;52.416;13.428;2023-03-04T06:55:08;11.57;;;2.70;;
56083;SDS011;41958;52.416;13.428;2023-03-04T06:57:34;12.18;;;2.78;;
56083;SDS011;41958;52.416;13.428;2023-03-04T06:59:59;13.00;;;2.95;;
56083;SDS011;41958;52.416;13.428;2023-03-04T07:02:24;12.13;;;3.05;;
56083;SDS011;41958;52.416;13.428;2023-03-04T07:04:49;11.98;;;2.95;;
56083;SDS011;41958;52.416;13.428;2023-03-04T07:07:15;14.82;;;2.70;;
56083;SDS011;41958;52.416;13.428;2023-03-04T07:09:40;10.13;;;3.05;;
56083;SDS011;41958;52.416;13.428;2023-03-04T07:12:06;10.30;;;3.55;;
56083;SDS011;41958;52.416;13.428;2023-03-04T07:14:31;12.05;;;2.63;;
56083;SDS011;41958;52.416;13.428;2023-03-04T07:16:57;10.63;;;2.95;;
56083;SDS011;41958;52.416;13.428;2023-03-04T07:19:22;14.75;;;3.70;;
56083;SDS011;41958;52.416;13.428;2023-03-04T07:21:48;8.35;;;2.53;;
56083;SDS011;41958;52.416;13.428;2023-03-04T07:24:13;9.88;;;2.95;;
56083;SDS011;41958;52.416;13.428;2023-03-04T07:26:39;11.38;;;2.80;;
56083;SDS011;41958;52.416;13.428;2023-03-04T07:29:04;9.98;;;2.53;;
56083;SDS011;41958;52.416;13.428;2023-03-04T07:31:31;10.30;;;2.70;;
56083;SDS011;41958;52.416;13.428;2023-03-04T07:33:58;10.63;;;2.67;;
56083;SDS011;41958;52.416;13.428;2023-03-04T07:36:25;8.52;;;3.45;;
56083;SDS011;41958;52.416;13.428;2023-03-04T07:38:51;12.30;;;3.33;;
56083;SDS011;41958;52.416;13.428;2023-03-04T07:41:19;7.15;;;2.63;;
56083;SDS011;41958;52.416;13.428;2023-03-04T07:43:45;9.48;;;3.10;;
56083;SDS011;41958;52.416;13.428;2023-03-04T07:46:11;9.00;;;3.00;;
56083;SDS011;41958;52.416;13.428;2023-03-04T07:48:37;7.65;;;2.63;;
56083;SDS011;41958;52.416;13.428;2023-03-04T07:51:07;12.38;;;2.67;;
56083;SDS011;41958;52.416;13.428;2023-03-04T07:53:40;6.40;;;2.50;;
56083;SDS011;41958;52.416;13.428;2023-03-04T07:56:07;7.63;;;2.90;;
56083;SDS011;41958;52.416;13.428;2023-03-04T07:58:35;8.25;;;2.75;;
56083;SDS011;41958;52.416;13.428;2023-03-04T08:01:05;10.52;;;3.15;;
56083;SDS011;41958;52.416;13.428;2023-03-04T08:03:42;5.03;;;2.20;;
56083;SDS011;41958;52.416;13.428;2023-03-04T08:06:09;6.20;;;2.40;;
56083;SDS011;41958;52.416;13.428;2023-03-04T08:08:36;7.45;;;2.35;;
56083;SDS011;41958;52.416;13.428;2023-03-04T08:11:05;10.10;;;3.42;;
56083;SDS011;41958;52.416;13.428;2023-03-04T08:13:32;7.38;;;1.83;;
56083;SDS011;41958;52.416;13.428;2023-03-04T08:15:58;5.03;;;2.15;;
56083;SDS011;41958;52.416;13.428;2023-03-04T08:18:23;6.95;;;2.40;;
56083;SDS011;41958;52.416;13.428;2023-03-04T08:20:49;6.63;;;2.35;;
56083;SDS011;41958;52.416;13.428;2023-03-04T08:23:14;7.53;;;2.40;;
56083;SDS011;41958;52.416;13.428;2023-03-04T08:25:40;9.15;;;2.22;;
56083;SDS011;41958;52.416;13.428;2023-03-04T08:28:06;12.30;;;2.92;;
56083;SDS011;41958;52.416;13.428;2023-03-04T08:30:32;8.90;;;2.50;;
56083;SDS011;41958;52.416;13.428;2023-03-04T08:32:59;8.50;;;2.58;;
56083;SDS011;41958;52.416;13.428;2023-03-04T08:35:25;6.45;;;2.28;;
56083;SDS011;41958;52.416;13.428;2023-03-04T08:37:51;7.72;;;2.25;;
56083;SDS011;41958;52.416;13.428;2023-03-04T08:40:16;8.50;;;2.15;;
56083;SDS011;41958;52.416;13.428;2023-03-04T08:42:41;10.00;;;3.58;;
56083;SDS011;41958;52.416;13.428;2023-03-04T08:45:07;4.82;;;1.92;;
56083;SDS011;41958;52.416;13.428;2023-03-04T08:47:33;10.93;;;2.70;;
56083;SDS011;41958;52.416;13.428;2023-03-04T08:49:59;7.00;;;3.15;;
56083;SDS011;41958;52.416;13.428;2023-03-04T08:52:24;5.88;;;2.05;;
56083;SDS011;41958;52.416;13.428;2023-03-04T08:54:49;6.43;;;2.28;;
56083;SDS011;41958;52.416;13.428;2023-03-04T08:57:15;9.10;;;2.40;;
56083;SDS011;41958;52.416;13.428;2023-03-04T08:59:40;9.20;;;2.15;;
56083;SDS011;41958;52.416;13.428;2023-03-04T09:02:05;5.63;;;1.90;;
56083;SDS011;41958;52.416;13.428;2023-03-04T09:04:30;9.00;;;1.98;;
56083;SDS011;41958;52.416;13.428;2023-03-04T09:06:56;7.40;;;2.05;;
56083;SDS011;41958;52.416;13.428;2023-03-04T09:09:21;7.13;;;1.80;;
56083;SDS011;41958;52.416;13.428;2023-03-04T09:11:46;8.20;;;2.22;;
56083;SDS011;41958;52.416;13.428;2023-03-04T09:14:11;8.88;;;1.70;;
56083;SDS011;41958;52.416;13.428;2023-03-04T09:16:37;5.25;;;2.20;;
56083;SDS011;41958;52.416;13.428;2023-03-04T09:19:02;9.23;;;1.90;;
56083;SDS011;41958;52.416;13.428;2023-03-04T09:21:28;4.32;;;1.63;;
56083;SDS011;41958;52.416;13.428;2023-03-04T09:23:53;7.70;;;2.33;;
56083;SDS011;41958;52.416;13.428;2023-03-04T09:26:20;9.23;;;2.38;;
56083;SDS011;41958;52.416;13.428;2023-03-04T09:28:50;8.35;;;2.35;;
56083;SDS011;41958;52.416;13.428;2023-03-04T09:31:20;7.35;;;1.80;;
56083;SDS011;41958;52.416;13.428;2023-03-04T09:33:46;6.22;;;2.22;;
56083;SDS011;41958;52.416;13.428;2023-03-04T09:36:12;7.65;;;1.92;;
56083;SDS011;41958;52.416;13.428;2023-03-04T09:38:38;11.38;;;1.90;;
56083;SDS011;41958;52.416;13.428;2023-03-04T09:41:20;7.55;;;1.70;;
56083;SDS011;41958;52.416;13.428;2023-03-04T09:43:49;6.05;;;1.88;;
56083;SDS011;41958;52.416;13.428;2023-03-04T09:46:17;5.25;;;1.58;;
56083;SDS011;41958;52.416;13.428;2023-03-04T09:48:56;3.45;;;1.67;;
56083;SDS011;41958;52.416;13.428;2023-03-04T09:51:40;8.88;;;1.98;;
56083;SDS011;41958;52.416;13.428;2023-03-04T09:54:23;7.63;;;1.90;;
56083;SDS011;41958;52.416;13.428;2023-03-04T09:56:52;8.30;;;1.98;;
56083;SDS011;41958;52.416;13.428;2023-03-04T09:59:31;7.25;;;2.28;;
56083;SDS011;41958;52.416;13.428;2023-03-04T10:02:19;6.25;;;1.98;;
56083;SDS011;41958;52.416;13.428;2023-03-04T10:04:53;6.25;;;1.65;;
56083;SDS011;41958;52.416;13.428;2023-03-04T10:07:26;7.35;;;1.60;;
56083;SDS011;41958;52.416;13.428;2023-03-04T10:10:10;6.20;;;2.13;;
56083;SDS011;41958;52.416;13.428;2023-03-04T10:12:41;11.85;;;1.38;;
56083;SDS011;41958;52.416;13.428;2023-03-04T10:18:17;4.18;;;0.93;;
56083;SDS011;41958;52.416;13.428;2023-03-04T10:21:15;6.28;;;1.92;;
56083;SDS011;41958;52.416;13.428;2023-03-04T10:23:50;7.03;;;1.15;;
56083;SDS011;41958;52.416;13.428;2023-03-04T10:26:18;6.93;;;1.13;;
56083;SDS011;41958;52.416;13.428;2023-03-04T10:28:45;11.23;;;1.00;;
56083;SDS011;41958;52.416;13.428;2023-03-04T10:34:08;7.35;;;1.45;;
56083;SDS011;41958;52.416;13.428;2023-03-04T10:36:42;10.63;;;1.60;;
56083;SDS011;41958;52.416;13.428;2023-03-04T10:39:30;5.20;;;1.15;;
56083;SDS011;41958;52.416;13.428;2023-03-04T10:42:02;6.05;;;1.15;;
56083;SDS011;41958;52.416;13.428;2023-03-04T10:44:31;7.93;;;1.63;;
56083;SDS011;41958;52.416;13.428;2023-03-04T10:46:58;5.85;;;1.25;;
56083;SDS011;41958;52.416;13.428;2023-03-04T10:49:24;8.75;;;1.80;;
56083;SDS011;41958;52.416;13.428;2023-03-04T10:52:00;8.30;;;1.00;;
56083;SDS011;41958;52.416;13.428;2023-03-04T10:54:28;7.65;;;1.13;;
56083;SDS011;41958;52.416;13.428;2023-03-04T10:56:58;7.63;;;1.10;;
56083;SDS011;41958;52.416;13.428;2023-03-04T10:59:30;10.52;;;2.40;;
56083;SDS011;41958;52.416;13.428;2023-03-04T11:01:56;7.35;;;1.05;;
56083;SDS011;41958;52.416;13.428;2023-03-04T11:04:30;7.55;;;1.25;;
56083;SDS011;41958;52.416;13.428;2023-03-04T11:06:58;6.18;;;1.42;;
56083;SDS011;41958;52.416;13.428;2023-03-04T11:09:24;6.45;;;1.27;;
56083;SDS011;41958;52.416;13.428;2023-03-04T11:11:53;9.13;;;1.27;;
56083;SDS011;41958;52.416;13.428;2023-03-04T11:17:00;10.90;;;1.83;;
56083;SDS011;41958;52.416;13.428;2023-03-04T11:19:40;9.50;;;1.70;;
56083;SDS011;41958;52.416;13.428;2023-03-04T11:22:19;9.90;;;1.15;;
56083;SDS011;41958;52.416;13.428;2023-03-04T11:24:47;11.20;;;1.63;;
56083;SDS011;41958;52.416;13.428;2023-03-04T11:29:51;10.75;;;1.48;;
56083;SDS011;41958;52.416;13.428;2023-03-04T11:32:25;8.05;;;2.38;;
56083;SDS011;41958;52.416;13.428;2023-03-04T11:35:00;16.20;;;1.88;;
56083;SDS011;41958;52.416;13.428;2023-03-04T11:37:36;10.77;;;1.70;;
56083;SDS011;41958;52.416;13.428;2023-03-04T11:40:15;13.60;;;1.52;;
56083;SDS011;41958;52.416;13.428;2023-03-04T11:42:50;10.07;;;1.67;;
56083;SDS011;41958;52.416;13.428;2023-03-04T11:48:18;10.10;;;1.38;;
56083;SDS011;41958;52.416;13.428;2023-03-04T11:50:52;9.73;;;1.50;;
56083;SDS011;41958;52.416;13.428;2023-03-04T11:53:25;9.63;;;1.58;;
56083;SDS011;41958;52.416;13.428;2023-03-04T11:58:58;11.75;;;2.22;;
56083;SDS011;41958;52.416;13.428;2023-03-04T12:05:22;8.10;;;1.13;;
56083;SDS011;41958;52.416;13.428;2023-03-04T12:10:43;11.45;;;1.83;;
56083;SDS011;41958;52.416;13.428;2023-03-04T12:13:30;11.77;;;2.00;;
56083;SDS011;41958;52.416;13.428;2023-03-04T12:16:16;11.60;;;1.60;;
56083;SDS011;41958;52.416;13.428;2023-03-04T12:26:54;11.82;;;2.03;;
56083;SDS011;41958;52.416;13.428;2023-03-04T12:32:17;11.93;;;1.70;;
56083;SDS011;41958;52.416;13.428;2023-03-04T12:35:04;13.45;;;1.70;;
56083;SDS011;41958;52.416;13.428;2023-03-04T12:38:05;12.57;;;1.67;;
56083;SDS011;41958;52.416;13.428;2023-03-04T12:46:40;12.20;;;1.88;;
56083;SDS011;41958;52.416;13.428;2023-03-04T12:49:14;14.20;;;2.28;;
56083;SDS011;41958;52.416;13.428;2023-03-04T12:54:50;9.10;;;2.50;;
56083;SDS011;41958;52.416;13.428;2023-03-04T12:57:20;7.68;;;1.92;;
56083;SDS011;41958;52.416;13.428;2023-03-04T12:59:59;9.55;;;1.55;;
56083;SDS011;41958;52.416;13.428;2023-03-04T13:05:28;9.07;;;1.52;;
56083;SDS011;41958;52.416;13.428;2023-03-04T13:14:00;8.80;;;1.15;;
56083;SDS011;41958;52.416;13.428;2023-03-04T13:16:45;11.60;;;1.50;;
56083;SDS011;41958;52.416;13.428;2023-03-04T13:22:25;8.00;;;1.50;;
56083;SDS011;41958;52.416;13.428;2023-03-04T13:24:50;9.27;;;1.30;;
56083;SDS011;41958;52.416;13.428;2023-03-04T13:51:22;10.02;;;1.95;;
56083;SDS011;41958;52.416;13.428;2023-03-04T13:56:23;6.70;;;1.40;;
56083;SDS011;41958;52.416;13.428;2023-03-04T14:01:59;10.00;;;1.38;;
56083;SDS011;41958;52.416;13.428;2023-03-04T14:04:28;8.05;;;1.38;;
56083;SDS011;41958;52.416;13.428;2023-03-04T14:06:55;9.32;;;1.73;;
56083;SDS011;41958;52.416;13.428;2023-03-04T14:09:32;11.15;;;2.08;;
56083;SDS011;41958;52.416;13.428;2023-03-04T14:12:03;10.10;;;1.88;;
56083;SDS011;41958;52.416;13.428;2023-03-04T14:14:46;8.63;;;1.30;;
56083;SDS011;41958;52.416;13.428;2023-03-04T14:17:16;7.47;;;1.40;;
56083;SDS011;41958;52.416;13.428;2023-03-04T14:19:45;6.70;;;1.27;;
56083;SDS011;41958;52.416;13.428;2023-03-04T14:24:58;11.18;;;2.45;;
56083;SDS011;41958;52.416;13.428;2023-03-04T14:27:43;6.88;;;1.38;;
56083;SDS011;41958;52.416;13.428;2023-03-04T14:32:57;9.32;;;1.55;;
56083;SDS011;41958;52.416;13.428;2023-03-04T14:35:25;10.40;;;2.10;;
56083;SDS011;41958;52.416;13.428;2023-03-04T14:37:57;7.18;;;1.90;;
56083;SDS011;41958;52.416;13.428;2023-03-04T14:40:26;10.07;;;1.70;;
56083;SDS011;41958;52.416;13.428;2023-03-04T14:43:01;9.88;;;1.55;;
56083;SDS011;41958;52.416;13.428;2023-03-04T14:45:32;8.63;;;1.60;;
56083;SDS011;41958;52.416;13.428;2023-03-04T14:47:59;7.80;;;1.95;;
56083;SDS011;41958;52.416;13.428;2023-03-04T14:50:29;11.30;;;1.95;;
56083;SDS011;41958;52.416;13.428;2023-03-04T14:55:38;12.05;;;1.77;;
56083;SDS011;41958;52.416;13.428;2023-03-04T14:58:07;10.30;;;1.65;;
56083;SDS011;41958;52.416;13.428;2023-03-04T15:00:43;9.18;;;1.23;;
56083;SDS011;41958;52.416;13.428;2023-03-04T15:05:46;5.55;;;1.45;;
56083;SDS011;41958;52.416;13.428;2023-03-04T15:08:25;12.77;;;2.30;;
56083;SDS011;41958;52.416;13.428;2023-03-04T15:10:53;15.07;;;2.10;;
56083;SDS011;41958;52.416;13.428;2023-03-04T15:16:06;6.25;;;1.80;;
56083;SDS011;41958;52.416;13.428;2023-03-04T15:18:32;6.03;;;1.13;;
56083;SDS011;41958;52.416;13.428;2023-03-04T15:20:58;13.60;;;1.95;;
56083;SDS011;41958;52.416;13.428;2023-03-04T15:23:30;10.23;;;1.35;;
56083;SDS011;41958;52.416;13.428;2023-03-04T15:25:57;6.70;;;1.52;;
56083;SDS011;41958;52.416;13.428;2023-03-04T15:28:24;11.20;;;1.17;;
56083;SDS011;41958;52.416;13.428;2023-03-04T15:30:51;8.98;;;1.17;;
56083;SDS011;41958;52.416;13.428;2023-03-04T15:33:16;14.00;;;1.80;;
56083;SDS011;41958;52.416;13.428;2023-03-04T15:35:55;5.38;;;0.95;;
56083;SDS011;41958;52.416;13.428;2023-03-04T15:38:23;7.75;;;1.35;;
56083;SDS011;41958;52.416;13.428;2023-03-04T15:40:49;4.15;;;1.10;;
56083;SDS011;41958;52.416;13.428;2023-03-04T15:43:18;8.88;;;1.60;;
56083;SDS011;41958;52.416;13.428;2023-03-04T15:45:46;5.45;;;1.50;;
56083;SDS011;41958;52.416;13.428;2023-03-04T15:48:12;7.18;;;2.35;;
56083;SDS011;41958;52.416;13.428;2023-03-04T15:50:40;8.82;;;1.75;;
56083;SDS011;41958;52.416;13.428;2023-03-04T15:53:14;12.20;;;2.20;;
56083;SDS011;41958;52.416;13.428;2023-03-04T15:55:45;12.82;;;2.15;;
56083;SDS011;41958;52.416;13.428;2023-03-04T15:58:11;12.68;;;2.20;;
56083;SDS011;41958;52.416;13.428;2023-03-04T16:00:37;10.68;;;1.70;;
56083;SDS011;41958;52.416;13.428;2023-03-04T16:03:02;13.00;;;1.95;;
56083;SDS011;41958;52.416;13.428;2023-03-04T16:05:28;13.18;;;2.25;;
56083;SDS011;41958;52.416;13.428;2023-03-04T16:07:53;12.35;;;1.95;;
56083;SDS011;41958;52.416;13.428;2023-03-04T16:10:25;9.82;;;1.73;;
56083;SDS011;41958;52.416;13.428;2023-03-04T16:12:53;11.30;;;1.85;;